Time;durP1;ratioP1;P1;durP2;ratioP2;P2;SDS_P1;SDS_P2;PMS_P1;PMS_P2;Temp;Humidity;BMP_temperature;BMP_pressure;BME280_temperature;BME280_humidity;BME280_pressure;Samples;Min_cycle;Max_cycle;Signal;HPM_P1;HPM_P2
2022/06/21 00:01:52;;;;;;;8.93;3.22;;;12.00;99.90;;;;;;5043729;28;20519;-68
2022/06/21 00:04:19;;;;;;;12.07;3.72;;;11.90;99.90;;;;;;5009999;28;20050;-68
2022/06/21 00:06:46;;;;;;;12.73;3.25;;;11.90;99.90;;;;;;5012175;28;20107;-69
2022/06/21 00:09:14;;;;;;;6.57;2.83;;;11.90;99.90;;;;;;5009978;28;20046;-68
2022/06/21 00:11:42;;;;;;;10.48;3.15;;;11.80;99.90;;;;;;5011155;28;20060;-69
2022/06/21 00:14:09;;;;;;;5.47;3.13;;;11.80;99.90;;;;;;5010553;28;20058;-68
2022/06/21 00:16:36;;;;;;;8.15;3.25;;;11.80;99.90;;;;;;5010290;28;20098;-68
2022/06/21 00:19:06;;;;;;;9.65;3.80;;;11.70;99.90;;;;;;5010784;28;20056;-68
2022/06/21 00:21:36;;;;;;;8.40;3.35;;;11.60;99.90;;;;;;5011463;28;20058;-68
2022/06/21 00:24:03;;;;;;;9.20;3.53;;;11.60;99.90;;;;;;5043215;28;20057;-69
2022/06/21 00:26:31;;;;;;;11.00;4.10;;;11.50;99.90;;;;;;5011499;28;20057;-68
2022/06/21 00:28:59;;;;;;;9.55;3.10;;;11.50;99.90;;;;;;5009590;28;20091;-68
2022/06/21 00:31:29;;;;;;;9.90;3.17;;;11.50;99.90;;;;;;5011051;28;20063;-68
2022/06/21 00:33:57;;;;;;;12.00;3.67;;;11.50;99.90;;;;;;5011507;28;20050;-69
2022/06/21 00:36:27;;;;;;;8.02;3.47;;;11.40;99.90;;;;;;5010313;28;20054;-67
2022/06/21 00:38:56;;;;;;;6.25;3.20;;;11.40;99.90;;;;;;5011008;28;20123;-68
2022/06/21 00:41:35;;;;;;;6.63;3.00;;;11.40;99.90;;;;;;5010176;28;20058;-69
2022/06/21 00:44:04;;;;;;;8.68;3.70;;;11.30;99.90;;;;;;5010875;28;20057;-69
2022/06/21 00:46:37;;;;;;;9.43;3.63;;;11.30;99.90;;;;;;5009472;28;20054;-68
2022/06/21 00:49:12;;;;;;;9.30;3.60;;;11.20;99.90;;;;;;5010733;28;20053;-68
2022/06/21 00:51:42;;;;;;;9.35;3.95;;;11.20;99.90;;;;;;5011044;28;20045;-68
2022/06/21 00:54:17;;;;;;;9.52;3.20;;;11.20;99.90;;;;;;5010337;28;20495;-68
2022/06/21 00:56:51;;;;;;;9.15;3.40;;;11.10;99.90;;;;;;5010001;28;20138;-68
2022/06/21 00:59:21;;;;;;;8.00;4.20;;;11.20;99.90;;;;;;5009679;28;20129;-68
2022/06/21 01:01:49;;;;;;;14.53;4.03;;;11.20;99.90;;;;;;5010076;28;20054;-67
2022/06/21 01:04:22;;;;;;;11.00;4.07;;;11.20;99.90;;;;;;5010787;28;20050;-68
2022/06/21 01:06:53;;;;;;;11.82;3.75;;;11.10;99.90;;;;;;5009270;28;20057;-68
2022/06/21 01:09:26;;;;;;;12.63;3.83;;;11.00;99.90;;;;;;5010668;28;20447;-67
2022/06/21 01:11:59;;;;;;;8.80;3.50;;;11.00;99.90;;;;;;5010651;28;20118;-68
2022/06/21 01:14:27;;;;;;;6.50;3.63;;;11.00;99.90;;;;;;5008547;28;20054;-68
2022/06/21 01:16:54;;;;;;;10.88;3.78;;;10.90;99.90;;;;;;5011109;28;20058;-67
2022/06/21 01:19:36;;;;;;;9.27;3.85;;;10.90;99.90;;;;;;5042417;28;20053;-68
2022/06/21 01:22:18;;;;;;;9.65;4.55;;;10.90;99.90;;;;;;5010019;28;20049;-67
2022/06/21 01:24:56;;;;;;;7.10;4.10;;;10.80;99.90;;;;;;5042332;28;20494;-68
2022/06/21 01:27:24;;;;;;;10.52;3.72;;;10.90;99.90;;;;;;5010379;28;20046;-67
2022/06/21 01:29:51;;;;;;;8.30;3.75;;;10.80;99.90;;;;;;5022055;28;20107;-67
2022/06/21 01:32:19;;;;;;;9.27;3.85;;;10.80;99.90;;;;;;4990925;28;20108;-68
2022/06/21 01:34:46;;;;;;;9.48;4.05;;;10.80;99.90;;;;;;5022077;28;20123;-68
2022/06/21 01:37:18;;;;;;;6.68;4.10;;;10.80;99.90;;;;;;4991101;28;20050;-68
2022/06/21 01:39:51;;;;;;;10.57;3.70;;;10.80;99.90;;;;;;4990421;28;20042;-70
2022/06/21 01:42:22;;;;;;;7.97;4.55;;;10.80;99.90;;;;;;5021597;28;20050;-68
2022/06/21 01:44:55;;;;;;;6.82;3.60;;;10.90;99.90;;;;;;4990809;28;20054;-67
2022/06/21 01:47:26;;;;;;;16.80;4.28;;;10.90;99.90;;;;;;4990578;28;20448;-68
2022/06/21 01:49:57;;;;;;;6.82;3.50;;;10.90;99.90;;;;;;5021505;28;20468;-68
2022/06/21 01:52:27;;;;;;;5.72;3.40;;;10.90;99.90;;;;;;4989848;28;20046;-68
2022/06/21 01:54:59;;;;;;;12.85;4.63;;;10.80;99.90;;;;;;4989584;28;20062;-68
2022/06/21 01:57:27;;;;;;;12.68;3.85;;;10.80;99.90;;;;;;4997872;28;20082;-68
2022/06/21 01:59:58;;;;;;;13.63;4.50;;;10.80;99.90;;;;;;5010029;28;20128;-69
2022/06/21 02:02:30;;;;;;;7.05;3.78;;;10.80;99.90;;;;;;5008857;28;20058;-69
2022/06/21 02:05:02;;;;;;;13.40;4.43;;;10.70;99.90;;;;;;5010128;28;20049;-69
2022/06/21 02:07:34;;;;;;;11.40;4.78;;;10.70;99.90;;;;;;5010131;28;20054;-69
2022/06/21 02:10:08;;;;;;;7.85;3.97;;;10.70;99.90;;;;;;5008390;28;20050;-69
2022/06/21 02:12:39;;;;;;;8.77;4.28;;;10.70;99.90;;;;;;5009226;28;20125;-67
2022/06/21 02:15:12;;;;;;;10.93;4.07;;;10.80;99.90;;;;;;5008889;28;20137;-69
2022/06/21 02:17:44;;;;;;;9.57;4.55;;;10.80;99.90;;;;;;5007935;28;20046;-69
2022/06/21 02:20:18;;;;;;;12.18;4.75;;;10.80;99.90;;;;;;5009844;28;20099;-69
2022/06/21 02:22:46;;;;;;;11.80;4.68;;;10.90;99.90;;;;;;5041508;28;20127;-68
2022/06/21 02:25:17;;;;;;;8.52;4.10;;;10.90;99.90;;;;;;5009639;28;20129;-68
2022/06/21 02:27:44;;;;;;;7.72;4.28;;;11.00;99.90;;;;;;5043068;28;20547;-67
2022/06/21 02:30:17;;;;;;;7.32;4.85;;;11.00;99.90;;;;;;5012865;28;20042;-68
2022/06/21 02:32:44;;;;;;;7.70;4.43;;;11.00;99.90;;;;;;5044985;28;20509;-68
2022/06/21 02:35:19;;;;;;;7.18;4.45;;;11.10;99.90;;;;;;5012808;28;20099;-68
2022/06/21 02:37:48;;;;;;;9.35;5.22;;;11.00;99.90;;;;;;5011778;28;20174;-68
2022/06/21 02:40:21;;;;;;;10.20;4.45;;;11.00;99.90;;;;;;5012021;28;20490;-69
2022/06/21 02:42:50;;;;;;;6.07;3.90;;;11.00;99.90;;;;;;5012689;28;20058;-69
2022/06/21 02:45:31;;;;;;;7.85;3.50;;;11.00;99.90;;;;;;5012344;28;20070;-69
2022/06/21 02:48:03;;;;;;;7.47;4.35;;;10.90;99.90;;;;;;5012152;28;20069;-68
2022/06/21 02:50:37;;;;;;;8.30;3.60;;;10.90;99.90;;;;;;5012801;28;20149;-68
2022/06/21 02:53:10;;;;;;;8.73;4.30;;;10.80;99.90;;;;;;5012410;28;20149;-68
2022/06/21 02:55:43;;;;;;;6.70;3.38;;;10.80;99.90;;;;;;5011659;28;20057;-69
2022/06/21 02:58:17;;;;;;;8.82;4.45;;;10.80;99.90;;;;;;5010962;28;20358;-69
2022/06/21 03:00:46;;;;;;;9.02;3.83;;;10.80;99.90;;;;;;5011099;28;20417;-68
2022/06/21 03:03:18;;;;;;;7.43;3.97;;;10.80;99.90;;;;;;5010051;28;20057;-68
2022/06/21 03:05:48;;;;;;;8.15;3.60;;;10.80;99.90;;;;;;5011033;28;20054;-68
2022/06/21 03:08:16;;;;;;;7.13;4.00;;;10.80;99.90;;;;;;5012307;28;20097;-66
2022/06/21 03:10:47;;;;;;;9.23;3.72;;;10.90;99.90;;;;;;5011937;28;20080;-67
2022/06/21 03:13:17;;;;;;;7.43;3.58;;;10.90;99.90;;;;;;5012014;28;20513;-67
2022/06/21 03:15:49;;;;;;;9.77;4.63;;;10.90;99.90;;;;;;5011735;28;20077;-68
2022/06/21 03:18:19;;;;;;;5.88;3.50;;;10.90;99.90;;;;;;5011203;28;20062;-68
2022/06/21 03:20:48;;;;;;;5.60;4.10;;;10.90;99.90;;;;;;5010872;28;20046;-69
2022/06/21 03:23:17;;;;;;;11.10;4.05;;;11.00;99.90;;;;;;5012277;28;20095;-68
2022/06/21 03:25:45;;;;;;;5.47;3.95;;;11.00;99.90;;;;;;4991388;28;20057;-68
2022/06/21 03:28:26;;;;;;;6.93;3.95;;;11.00;99.90;;;;;;5023681;28;20046;-68
2022/06/21 03:31:00;;;;;;;6.03;4.00;;;11.10;99.90;;;;;;4992941;28;20046;-68
2022/06/21 03:33:28;;;;;;;7.93;4.28;;;11.10;99.90;;;;;;5024284;28;20069;-68
2022/06/21 03:35:56;;;;;;;6.30;3.70;;;11.10;99.90;;;;;;4992322;28;20410;-68
2022/06/21 03:38:23;;;;;;;11.57;4.05;;;11.20;99.90;;;;;;4995489;28;20119;-68
2022/06/21 03:43:38;;;;;;;12.15;3.97;;;11.20;99.90;;;;;;5008512;28;20206;-69
2022/06/21 03:46:11;;;;;;;5.68;3.60;;;11.30;99.90;;;;;;4998067;28;20054;-69
2022/06/21 03:48:41;;;;;;;5.95;3.80;;;11.40;99.90;;;;;;5000667;28;20072;-69
2022/06/21 03:51:12;;;;;;;7.22;4.57;;;11.50;99.90;;;;;;5004499;28;20521;-69
2022/06/21 03:53:43;;;;;;;8.20;4.47;;;11.50;99.90;;;;;;5005550;28;20099;-69
2022/06/21 03:56:14;;;;;;;;;;;11.70;99.90;;;;;;5003693;28;20099;-68
2022/06/21 03:58:53;;;;;;;9.80;4.55;;;11.70;99.90;;;;;;5005109;28;19921;-69
2022/06/21 04:01:25;;;;;;;6.95;3.72;;;11.90;99.90;;;;;;5032295;28;20465;-69
2022/06/21 04:04:00;;;;;;;6.80;4.22;;;12.00;99.90;;;;;;5006818;28;20498;-68
2022/06/21 04:06:35;;;;;;;5.30;3.47;;;12.00;99.90;;;;;;5001702;28;20054;-68
2022/06/21 04:09:07;;;;;;;10.13;4.68;;;12.20;99.90;;;;;;5000010;28;20042;-69
2022/06/21 04:11:41;;;;;;;7.68;4.40;;;12.30;99.90;;;;;;5025535;28;20486;-69
2022/06/21 04:14:16;;;;;;;6.00;3.78;;;12.30;99.90;;;;;;5008412;28;20065;-69
2022/06/21 04:16:51;;;;;;;8.38;4.50;;;12.30;99.90;;;;;;5026725;28;20046;-68
2022/06/21 04:19:25;;;;;;;10.93;4.38;;;12.30;99.90;;;;;;5002912;28;20556;-68
2022/06/21 04:22:00;;;;;;;7.43;4.28;;;12.40;99.90;;;;;;5001295;28;20047;-69
2022/06/21 04:24:34;;;;;;;10.18;4.25;;;12.30;99.90;;;;;;5007645;28;20448;-69
2022/06/21 04:27:04;;;;;;;6.47;4.45;;;12.40;99.90;;;;;;5005840;28;20413;-69
2022/06/21 04:29:38;;;;;;;10.65;3.88;;;12.40;99.90;;;;;;5008169;28;20106;-68
2022/06/21 04:32:13;;;;;;;11.95;4.47;;;12.30;99.90;;;;;;5025941;28;20137;-69
2022/06/21 04:34:46;;;;;;;9.40;4.10;;;12.40;99.90;;;;;;4999661;28;20053;-69
2022/06/21 04:37:17;;;;;;;8.60;4.47;;;12.50;99.90;;;;;;5001464;28;20046;-69
2022/06/21 04:39:50;;;;;;;11.50;4.85;;;12.60;99.90;;;;;;5028146;28;20108;-69
2022/06/21 04:42:23;;;;;;;9.15;5.15;;;12.60;99.90;;;;;;5000913;28;20054;-69
2022/06/21 04:44:56;;;;;;;6.68;4.28;;;12.50;99.90;;;;;;5004137;28;20320;-68
2022/06/21 04:47:31;;;;;;;9.88;4.68;;;12.40;99.90;;;;;;5003541;28;20077;-68
2022/06/21 04:50:05;;;;;;;6.85;4.45;;;12.40;99.90;;;;;;5024411;28;20460;-68
2022/06/21 04:52:38;;;;;;;9.63;5.03;;;12.40;99.90;;;;;;5001839;28;20042;-69
2022/06/21 04:55:06;;;;;;;7.40;4.55;;;12.40;99.90;;;;;;5003498;28;20099;-69
2022/06/21 04:57:33;;;;;;;7.15;4.78;;;12.40;99.90;;;;;;5008928;28;20050;-69
2022/06/21 05:00:05;;;;;;;10.13;4.82;;;12.50;99.90;;;;;;5004015;28;20050;-68
2022/06/21 05:02:37;;;;;;;11.40;4.53;;;12.60;99.90;;;;;;5001928;28;20054;-71
2022/06/21 05:05:07;;;;;;;7.63;4.35;;;12.70;99.90;;;;;;5003916;28;20045;-69
2022/06/21 05:07:42;;;;;;;7.90;4.85;;;12.80;99.90;;;;;;5001709;28;20057;-68
2022/06/21 05:10:16;;;;;;;8.05;5.15;;;13.00;99.90;;;;;;5004238;28;20053;-68
2022/06/21 05:12:44;;;;;;;10.50;5.85;;;13.10;99.90;;;;;;5008058;28;20050;-68
2022/06/21 05:15:18;;;;;;;10.68;5.20;;;13.30;99.90;;;;;;5003123;28;20124;-69
2022/06/21 05:17:53;;;;;;;14.27;5.93;;;13.40;99.90;;;;;;5001765;28;20050;-70
2022/06/21 05:20:24;;;;;;;18.25;6.10;;;13.40;99.90;;;;;;5001331;28;20506;-69
2022/06/21 05:22:54;;;;;;;13.20;5.47;;;13.40;99.90;;;;;;5002803;28;20854;-69
2022/06/21 05:25:26;;;;;;;9.88;5.72;;;13.50;99.90;;;;;;5002513;28;20443;-67
2022/06/21 05:27:58;;;;;;;11.65;5.45;;;13.50;99.90;;;;;;5005661;28;20046;-67
2022/06/21 05:30:35;;;;;;;10.27;4.90;;;13.60;99.90;;;;;;5002020;28;20104;-67
2022/06/21 05:33:08;;;;;;;10.00;5.28;;;13.80;99.90;;;;;;5000424;28;20054;-68
2022/06/21 05:35:36;;;;;;;8.80;5.28;;;13.90;99.90;;;;;;4993330;28;20107;-68
2022/06/21 05:38:11;;;;;;;7.90;4.97;;;14.10;99.90;;;;;;4999143;28;20084;-70
2022/06/21 05:40:44;;;;;;;9.25;5.53;;;14.20;99.90;;;;;;5000623;28;20046;-69
2022/06/21 05:43:15;;;;;;;12.35;5.88;;;14.60;99.90;;;;;;5006693;28;20050;-68
2022/06/21 05:45:48;;;;;;;8.13;5.22;;;14.70;99.90;;;;;;5025767;28;20047;-68
2022/06/21 05:48:22;;;;;;;9.68;5.28;;;14.80;99.90;;;;;;5003733;28;20050;-67
2022/06/21 05:50:50;;;;;;;10.52;5.75;;;15.10;99.90;;;;;;5003338;28;20057;-68
2022/06/21 05:53:26;;;;;;;10.68;5.07;;;15.30;99.90;;;;;;5003814;28;20049;-68
2022/06/21 05:55:53;;;;;;;9.07;5.25;;;15.40;99.90;;;;;;5033270;28;20106;-68
2022/06/21 05:58:25;;;;;;;8.48;5.20;;;15.60;99.90;;;;;;5000952;28;20108;-69
2022/06/21 06:00:58;;;;;;;9.35;5.75;;;15.70;99.90;;;;;;5001795;28;20111;-68
2022/06/21 06:03:31;;;;;;;12.60;5.60;;;15.80;99.90;;;;;;5004161;28;20045;-70
2022/06/21 06:06:04;;;;;;;7.82;5.30;;;15.90;99.90;;;;;;5004517;28;20034;-68
2022/06/21 06:08:36;;;;;;;6.82;4.68;;;16.10;99.90;;;;;;5015990;28;20463;-69
2022/06/21 06:11:08;;;;;;;7.57;4.32;;;16.10;99.90;;;;;;5008572;28;20046;-68
2022/06/21 06:13:38;;;;;;;6.68;4.20;;;16.20;99.90;;;;;;5010932;28;20509;-67
2022/06/21 06:16:11;;;;;;;10.63;4.35;;;16.40;99.90;;;;;;5009900;28;20042;-69
2022/06/21 06:18:46;;;;;;;4.90;2.35;;;16.70;99.90;;;;;;5008231;28;20050;-68
2022/06/21 06:21:18;;;;;;;6.45;2.72;;;16.90;99.90;;;;;;5006666;28;20049;-68
2022/06/21 06:23:54;;;;;;;4.38;2.90;;;17.10;99.90;;;;;;5025438;28;20054;-68
2022/06/21 06:26:25;;;;;;;6.75;2.97;;;17.20;99.90;;;;;;5007692;28;20077;-69
2022/06/21 06:28:57;;;;;;;9.15;3.75;;;17.20;99.90;;;;;;5005144;28;20054;-69
2022/06/21 06:31:28;;;;;;;8.80;3.05;;;17.30;99.90;;;;;;5004038;28;20480;-68
2022/06/21 06:33:59;;;;;;;4.68;2.47;;;17.20;99.90;;;;;;5003477;28;20050;-68
2022/06/21 06:36:30;;;;;;;10.48;2.80;;;17.30;99.90;;;;;;5004877;28;20471;-69
2022/06/21 06:38:59;;;;;;;5.20;2.35;;;17.40;99.90;;;;;;5003166;28;20057;-69
2022/06/21 06:41:30;;;;;;;5.15;2.33;;;17.30;99.90;;;;;;5006475;28;20060;-70
2022/06/21 06:44:01;;;;;;;5.07;2.55;;;17.40;99.90;;;;;;4991867;28;20518;-69
2022/06/21 06:46:31;;;;;;;7.47;2.83;;;17.50;99.90;;;;;;5009576;28;20056;-70
2022/06/21 06:49:08;;;;;;;6.97;2.20;;;17.80;99.90;;;;;;5011883;28;20501;-69
2022/06/21 06:51:46;;;;;;;4.78;2.30;;;18.10;99.90;;;;;;5012427;28;20308;-69
2022/06/21 06:54:25;;;;;;;5.30;2.20;;;18.20;99.90;;;;;;5013256;28;20053;-69
2022/06/21 06:57:06;;;;;;;4.30;2.22;;;18.20;99.90;;;;;;5012816;28;20053;-70
2022/06/21 06:59:33;;;;;;;4.60;2.35;;;18.10;99.90;;;;;;5012256;28;20103;-69
2022/06/21 07:02:04;;;;;;;6.13;2.72;;;18.20;99.90;;;;;;5044849;28;20054;-70
2022/06/21 07:04:40;;;;;;;6.68;2.20;;;18.40;99.90;;;;;;5013031;28;20102;-70
2022/06/21 07:07:12;;;;;;;4.82;2.05;;;18.90;99.90;;;;;;5012718;28;20053;-70
2022/06/21 07:09:45;;;;;;;6.65;2.35;;;19.10;99.90;;;;;;5010906;28;20494;-70
2022/06/21 07:12:18;;;;;;;6.28;2.03;;;19.20;99.90;;;;;;5043690;28;20107;-69
2022/06/21 07:14:46;;;;;;;6.68;2.17;;;19.50;99.90;;;;;;5044347;28;20049;-68
2022/06/21 07:17:20;;;;;;;7.70;2.42;;;19.70;99.90;;;;;;5012594;28;20056;-69
2022/06/21 07:19:48;;;;;;;5.80;2.75;;;19.80;99.90;;;;;;5020220;28;20057;-70
2022/06/21 07:22:17;;;;;;;5.60;2.70;;;20.20;99.90;;;;;;5074744;28;20497;-70
2022/06/21 07:24:51;;;;;;;4.88;2.30;;;20.50;99.90;;;;;;5028869;28;20050;-69
2022/06/21 07:27:19;;;;;;;5.43;2.78;;;21.10;99.90;;;;;;5011806;28;20050;-70
2022/06/21 07:29:53;;;;;;;5.90;2.80;;;21.00;99.90;;;;;;5021093;28;20045;-69
2022/06/21 07:32:25;;;;;;;5.75;2.85;;;20.80;99.90;;;;;;5011967;28;20099;-70
2022/06/21 07:34:58;;;;;;;6.88;2.50;;;20.70;99.90;;;;;;5043596;28;20054;-70
2022/06/21 07:37:30;;;;;;;7.38;2.60;;;21.20;99.90;;;;;;5095170;27;20564;-70
2022/06/21 07:40:02;;;;;;;6.80;3.05;;;21.60;99.90;;;;;;5038421;28;20058;-70
2022/06/21 07:42:32;;;;;;;5.07;2.65;;;22.10;99.60;;;;;;5011026;28;20065;-70
2022/06/21 07:45:03;;;;;;;6.72;2.97;;;21.70;98.80;;;;;;5010285;28;20111;-70
2022/06/21 07:47:40;;;;;;;6.85;2.58;;;22.00;98.70;;;;;;5009918;28;20574;-70
2022/06/21 07:50:13;;;;;;;8.90;2.20;;;22.10;97.60;;;;;;5004998;28;20128;-71
2022/06/21 07:52:45;;;;;;;6.50;2.22;;;22.40;95.00;;;;;;5011739;28;20054;-70
2022/06/21 07:55:17;;;;;;;5.60;2.45;;;22.70;96.00;;;;;;4998931;28;20053;-69
2022/06/21 07:57:51;;;;;;;4.88;2.00;;;23.10;95.60;;;;;;4968037;28;20093;-69
2022/06/21 08:00:20;;;;;;;4.80;1.73;;;23.50;93.90;;;;;;5011133;28;20442;-70
2022/06/21 08:08:31;;;;;;;4.15;2.30;;;23.40;92.40;;;;;;5010969;28;20056;-70
2022/06/21 08:11:02;;;;;;;3.70;2.10;;;23.20;92.80;;;;;;5010453;28;20057;-70
2022/06/21 08:13:31;;;;;;;6.78;2.92;;;23.10;92.80;;;;;;5010099;28;20106;-70
2022/06/21 08:16:05;;;;;;;5.47;2.03;;;22.60;93.70;;;;;;5009450;28;20409;-70
2022/06/21 08:18:38;;;;;;;3.85;2.08;;;22.30;93.10;;;;;;5010417;28;20503;-70
2022/06/21 08:21:10;;;;;;;4.35;1.92;;;21.80;93.40;;;;;;5001696;28;20050;-69
2022/06/21 08:23:41;;;;;;;5.53;2.67;;;22.10;93.50;;;;;;5041673;28;20406;-70
2022/06/21 08:26:16;;;;;;;5.70;2.60;;;22.60;93.30;;;;;;5010513;28;20050;-69
2022/06/21 08:28:50;;;;;;;5.97;2.47;;;23.10;92.70;;;;;;5021400;28;20148;-70
2022/06/21 08:31:25;;;;;;;5.53;1.95;;;23.50;92.00;;;;;;5030533;28;20052;-70
2022/06/21 08:33:56;;;;;;;5.57;2.10;;;23.60;91.30;;;;;;5028941;28;20102;-70
2022/06/21 08:36:30;;;;;;;5.80;2.22;;;23.70;91.00;;;;;;4996413;28;20077;-69
2022/06/21 08:39:02;;;;;;;6.35;2.58;;;24.30;90.90;;;;;;5037852;28;20509;-69
2022/06/21 08:41:58;;;;;;;8.35;2.50;;;24.60;90.30;;;;;;5030282;28;20075;-72
2022/06/21 08:48:45;;;;;;;5.78;2.58;;;24.70;84.40;;;;;;4989810;28;20434;-70
2022/06/21 08:51:37;;;;;;;7.03;2.88;;;25.00;83.40;;;;;;4996928;28;20072;-70
2022/06/21 08:54:16;;;;;;;6.68;2.30;;;25.00;84.70;;;;;;4991145;28;20050;-69
2022/06/21 08:56:51;;;;;;;6.18;2.33;;;25.40;85.70;;;;;;5001900;28;20058;-70
2022/06/21 08:59:25;;;;;;;8.95;2.88;;;25.20;85.20;;;;;;5010580;28;20386;-69
2022/06/21 09:02:00;;;;;;;5.05;2.55;;;25.40;84.70;;;;;;5009585;28;20447;-71
2022/06/21 09:04:39;;;;;;;3.58;2.30;;;25.20;83.10;;;;;;5022712;28;20181;-71
2022/06/21 09:07:28;;;;;;;8.93;2.67;;;25.30;82.60;;;;;;5030708;28;20085;-70
2022/06/21 09:10:12;;;;;;;4.63;1.90;;;25.40;81.60;;;;;;5028920;28;20081;-70
2022/06/21 09:12:50;;;;;;;2.80;1.88;;;25.70;79.60;;;;;;5028973;28;20098;-70
2022/06/21 09:15:41;;;;;;;4.50;2.08;;;25.60;79.40;;;;;;5030187;28;20053;-72
2022/06/21 09:18:21;;;;;;;5.30;2.10;;;25.70;79.90;;;;;;5014558;28;20071;-75
2022/06/21 09:20:56;;;;;;;4.82;2.03;;;25.90;81.00;;;;;;5010212;28;20114;-72
2022/06/21 09:23:44;;;;;;;5.68;2.38;;;26.00;79.40;;;;;;5003731;28;20437;-71
2022/06/21 09:26:19;;;;;;;5.30;2.03;;;26.30;79.40;;;;;;5004500;28;20115;-71
2022/06/21 09:28:53;;;;;;;5.22;2.05;;;26.60;79.30;;;;;;5018285;28;20455;-71
2022/06/21 09:31:35;;;;;;;4.82;1.80;;;26.60;77.50;;;;;;5009178;28;20045;-71
2022/06/21 09:34:08;;;;;;;5.43;2.20;;;26.50;75.30;;;;;;5009823;28;20057;-71
2022/06/21 09:36:44;;;;;;;5.00;1.95;;;26.70;76.50;;;;;;5009988;28;20448;-70
2022/06/21 09:39:20;;;;;;;5.22;1.55;;;27.10;76.50;;;;;;5000347;28;20046;-71
2022/06/21 09:41:56;;;;;;;5.03;2.10;;;27.50;74.60;;;;;;5032170;28;20084;-71
2022/06/21 09:44:34;;;;;;;6.40;2.20;;;27.50;73.70;;;;;;5006974;28;20062;-72
2022/06/21 09:47:10;;;;;;;3.67;1.92;;;27.00;75.00;;;;;;5010081;28;20046;-70
2022/06/21 09:49:45;;;;;;;4.47;1.50;;;27.40;74.30;;;;;;5008998;28;20056;-70
2022/06/21 09:52:24;;;;;;;4.05;1.80;;;27.60;73.90;;;;;;5041568;28;20054;-70
2022/06/21 09:55:01;;;;;;;5.50;1.92;;;28.00;72.20;;;;;;5009547;28;20078;-71
2022/06/21 09:57:36;;;;;;;4.32;1.70;;;27.60;72.40;;;;;;5010100;28;20053;-71
2022/06/21 10:00:12;;;;;;;5.18;1.70;;;27.00;72.60;;;;;;5008815;28;20058;-73
2022/06/21 10:02:49;;;;;;;3.33;1.50;;;26.10;73.10;;;;;;5009597;28;20054;-73
2022/06/21 10:05:23;;;;;;;4.10;2.28;;;25.30;75.30;;;;;;5008724;28;20060;-71
2022/06/21 10:08:14;;;;;;;3.88;1.40;;;24.70;75.30;;;;;;5009045;28;20501;-71
2022/06/21 10:10:59;;;;;;;4.28;1.70;;;24.80;76.10;;;;;;4993442;28;20100;-72
2022/06/21 10:13:57;;;;;;;4.75;2.00;;;25.60;73.50;;;;;;4989117;28;20133;-74
2022/06/21 10:16:43;;;;;;;6.05;1.70;;;26.20;72.60;;;;;;4999127;28;20055;-71
2022/06/21 10:19:26;;;;;;;8.27;1.45;;;26.60;72.80;;;;;;5003606;28;20053;-72
2022/06/21 10:22:16;;;;;;;5.35;1.20;;;26.80;70.30;;;;;;5023017;28;20062;-72
2022/06/21 10:25:08;;;;;;;3.60;1.45;;;27.10;70.20;;;;;;4998723;28;20050;-72
2022/06/21 10:28:05;;;;;;;3.88;1.40;;;27.40;69.90;;;;;;5001316;28;20129;-73
2022/06/21 10:31:02;;;;;;;4.78;1.70;;;27.50;70.60;;;;;;5006565;28;20054;-71
2022/06/21 10:33:54;;;;;;;3.97;1.42;;;27.70;72.00;;;;;;4998522;28;20057;-71
2022/06/21 10:36:35;;;;;;;5.05;1.80;;;27.70;69.10;;;;;;5002355;28;20047;-72
2022/06/21 10:39:18;;;;;;;5.28;1.58;;;28.20;71.10;;;;;;5004106;28;20046;-72
2022/06/21 10:45:11;;;;;;;5.43;1.40;;;28.40;68.10;;;;;;4999023;28;20138;-72
2022/06/21 10:47:57;;;;;;;6.47;1.70;;;28.60;66.80;;;;;;5001536;28;20137;-73
2022/06/21 10:50:44;;;;;;;3.83;1.30;;;28.90;66.40;;;;;;5005791;28;20058;-71
2022/06/21 10:53:33;;;;;;;3.30;1.20;;;29.00;65.40;;;;;;5003844;28;20050;-72
2022/06/21 10:59:12;;;;;;;3.63;1.13;;;29.50;66.90;;;;;;5012312;28;20046;-73
2022/06/21 11:01:47;;;;;;;4.35;1.48;;;29.70;64.70;;;;;;5012615;28;20057;-73
2022/06/21 11:04:35;;;;;;;3.25;1.02;;;29.80;65.70;;;;;;5005514;28;20137;-73
2022/06/21 11:07:11;;;;;;;7.35;1.73;;;29.60;63.50;;;;;;5004512;28;20046;-72
2022/06/21 11:09:44;;;;;;;5.40;1.30;;;29.30;64.10;;;;;;5009574;28;20083;-71
2022/06/21 11:15:06;;;;;;;3.60;1.20;;;29.50;64.40;;;;;;4990188;28;20052;-72
2022/06/21 11:17:44;;;;;;;4.35;1.10;;;29.50;63.30;;;;;;5004791;28;20550;-73
2022/06/21 11:20:22;;;;;;;3.03;1.08;;;29.30;64.20;;;;;;5023629;28;20133;-71
2022/06/21 11:22:56;;;;;;;4.43;1.60;;;29.40;63.80;;;;;;5003590;28;20121;-72
2022/06/21 11:25:34;;;;;;;5.18;1.50;;;29.00;63.70;;;;;;5007048;28;20054;-72
2022/06/21 11:28:12;;;;;;;3.92;1.30;;;28.80;64.40;;;;;;5004098;28;20107;-72
2022/06/21 11:30:50;;;;;;;5.35;1.40;;;28.80;64.20;;;;;;5004793;28;20099;-71
2022/06/21 11:33:30;;;;;;;2.75;1.27;;;28.90;64.00;;;;;;5000944;28;20444;-70
2022/06/21 11:36:06;;;;;;;3.08;1.23;;;28.90;64.20;;;;;;4998999;28;20061;-72
2022/06/21 11:38:56;;;;;;;3.65;1.20;;;29.30;65.20;;;;;;5006720;28;20110;-72
2022/06/21 11:44:29;;;;;;;3.35;1.20;;;30.30;63.10;;;;;;5004114;28;20114;-72
2022/06/21 11:47:02;;;;;;;5.13;1.50;;;30.30;62.50;;;;;;5002954;28;20042;-72
2022/06/21 11:49:37;;;;;;;3.10;1.10;;;30.40;62.70;;;;;;5003295;28;20104;-71
2022/06/21 11:52:33;;;;;;;4.07;1.50;;;30.00;62.00;;;;;;5004360;28;20038;-71
2022/06/21 11:55:10;;;;;;;5.45;1.27;;;30.00;60.00;;;;;;5003114;28;20115;-72
2022/06/21 11:57:42;;;;;;;2.78;0.90;;;29.90;62.00;;;;;;4999845;28;20046;-71
2022/06/21 12:00:15;;;;;;;4.20;1.33;;;29.90;62.10;;;;;;5004939;28;20430;-70
2022/06/21 12:02:49;;;;;;;4.65;1.13;;;30.20;61.40;;;;;;5023429;28;20133;-72
2022/06/21 12:05:26;;;;;;;4.25;1.30;;;30.20;61.80;;;;;;5003312;28;20058;-71
2022/06/21 12:07:58;;;;;;;3.65;1.25;;;30.30;61.70;;;;;;5001681;28;20588;-72
2022/06/21 12:10:37;;;;;;;3.55;1.20;;;30.50;61.10;;;;;;5003289;28;20560;-72
2022/06/21 12:13:16;;;;;;;2.42;0.90;;;30.40;61.10;;;;;;5002055;28;20042;-71
2022/06/21 12:15:58;;;;;;;3.20;1.38;;;30.50;62.20;;;;;;5005148;28;20133;-71
2022/06/21 12:18:29;;;;;;;2.70;1.10;;;30.50;61.20;;;;;;5000521;28;20257;-71
2022/06/21 12:21:02;;;;;;;4.63;1.30;;;30.30;60.60;;;;;;5024732;28;20046;-72
2022/06/21 12:23:36;;;;;;;5.32;1.30;;;30.30;60.40;;;;;;5003995;28;20081;-71
2022/06/21 12:26:04;;;;;;;3.67;1.05;;;30.20;60.10;;;;;;5004752;28;20069;-71
2022/06/21 12:28:35;;;;;;;3.20;1.10;;;30.30;61.00;;;;;;5009440;28;20107;-72
2022/06/21 12:31:07;;;;;;;3.03;1.02;;;30.30;60.20;;;;;;4998852;28;20054;-72
2022/06/21 12:33:36;;;;;;;2.78;0.90;;;30.50;60.20;;;;;;5021403;28;20050;-72
2022/06/21 12:36:32;;;;;;;3.83;1.10;;;30.60;60.10;;;;;;5007176;28;20092;-71
2022/06/21 12:39:04;;;;;;;2.75;1.27;;;30.80;59.20;;;;;;5001131;28;20103;-71
2022/06/21 12:41:44;;;;;;;6.45;1.20;;;30.50;59.40;;;;;;5007955;28;20046;-72
2022/06/21 12:44:24;;;;;;;2.22;0.82;;;30.50;58.90;;;;;;5001875;28;20094;-71
2022/06/21 12:47:06;;;;;;;2.55;1.10;;;30.40;58.50;;;;;;5002115;28;20133;-71
2022/06/21 12:50:04;;;;;;;2.20;1.17;;;30.40;59.90;;;;;;5002975;28;20105;-72
2022/06/21 12:52:40;;;;;;;3.65;1.25;;;31.00;59.80;;;;;;5002319;28;20095;-71
2022/06/21 12:55:12;;;;;;;3.00;1.08;;;31.10;59.40;;;;;;5000419;28;20050;-71
2022/06/21 12:58:03;;;;;;;3.67;1.23;;;31.30;59.00;;;;;;5001462;28;20049;-72
2022/06/21 13:00:43;;;;;;;2.75;1.20;;;31.20;58.60;;;;;;5007547;28;20050;-71
2022/06/21 13:03:48;;;;;;;2.90;1.20;;;31.00;60.30;;;;;;5002298;28;20106;-71
2022/06/21 13:06:37;;;;;;;4.70;1.25;;;31.10;60.00;;;;;;5000596;28;20065;-72
2022/06/21 13:09:47;;;;;;;4.93;1.33;;;31.40;59.40;;;;;;5000131;28;20049;-72
2022/06/21 13:12:45;;;;;;;3.00;1.30;;;31.90;59.30;;;;;;5005465;28;20043;-72
2022/06/21 13:15:35;;;;;;;4.65;1.50;;;32.40;58.70;;;;;;5003973;28;20452;-73
2022/06/21 13:18:19;;;;;;;3.63;1.40;;;32.60;59.20;;;;;;5001353;28;20099;-71
2022/06/21 13:21:00;;;;;;;3.35;1.20;;;32.50;58.40;;;;;;5002067;28;20929;-72
2022/06/21 13:23:40;;;;;;;4.65;1.30;;;32.30;57.80;;;;;;4998372;28;20060;-71
2022/06/21 13:26:17;;;;;;;3.47;1.60;;;32.30;57.90;;;;;;5003577;28;20115;-71
2022/06/21 13:29:00;;;;;;;4.85;1.60;;;32.20;58.00;;;;;;5005248;28;20501;-72
2022/06/21 13:31:33;;;;;;;3.78;1.30;;;31.50;57.20;;;;;;5000457;28;20058;-71
2022/06/21 13:34:05;;;;;;;4.25;1.52;;;31.30;58.20;;;;;;4999349;28;20061;-72
2022/06/21 13:36:41;;;;;;;3.72;1.70;;;30.80;58.30;;;;;;4999598;28;20515;-72
2022/06/21 13:39:29;;;;;;;4.47;1.63;;;30.20;59.20;;;;;;5004934;28;20045;-72
2022/06/21 13:44:54;;;;;;;3.65;1.60;;;29.50;58.80;;;;;;5001104;28;20092;-72
2022/06/21 13:47:26;;;;;;;2.55;1.52;;;28.70;59.20;;;;;;5029420;28;20054;-74
2022/06/21 13:50:01;;;;;;;5.07;1.60;;;28.70;59.60;;;;;;5005590;28;20498;-73
2022/06/21 13:52:32;;;;;;;4.15;1.65;;;28.30;60.50;;;;;;5000529;28;20387;-73